Edgar B Speer — WQZ9670 — position and weather

sailwx.info

Track history (hours):
 
Tides and Currents Weather Stations Pressure Air Temp Water Temp Dewpoint Dewpoint Depression Visibility Wind Speed Wind Dir Waves Ship Positions

Edgar B Speer

Owner: Great Lakes Fleet, Inc, DULUTH, MN. More information available from US FCC via Universal Licensing System and Coast Guard Vessel Documentation Center.

Last reported at 2016-Apr-27 06:33 UTC. Time now 2016-Apr-28 19:47 UTC.
Position N 46°13' W 084°07'.

Length 306 m; draft 8.7 m.

Type: Cargo ship. MMSI: 366971330.

Date/timePositionNaut miles runAvg speedWind from/ knotsBaromVisibWave heightAir tempDewpointWater temp
2016-Apr-27 06:33N 46°13' W 084°07'10 9.5
2016-Apr-27 05:33N 46°05' W 084°01'1111.5
2016-Apr-27 04:33N 45°55' W 083°52'  
2016-Apr-23 16:09N 45°53' W 083°48'32 8.3
2016-Apr-23 12:16N 46°20' W 084°13'12 3.2
2016-Apr-23 08:32N 46°30' W 084°24'5 5.1
2016-Apr-23 07:31N 46°27' W 084°30'9 8.7
2016-Apr-23 06:29N 46°33' W 084°40'3712.6
2016-Apr-23 03:31N 46°56' W 085°23'1313.1
2016-Apr-23 02:33N 47°02' W 085°40'23712.3
2016-Apr-22 07:18N 47°04' W 091°28'912.0
2016-Apr-22 06:33N 47°00' W 091°40'1 0.6
2016-Apr-22 05:33N 47°01' W 091°40'0 0.0
2016-Apr-22 04:30N 47°01' W 091°40'0 0.0
2016-Apr-22 03:23N 47°01' W 091°40'0 0.0
2016-Apr-22 02:33N 47°01' W 091°40'0 0.0
2016-Apr-21 17:33N 47°01' W 091°40'31410.4
2016-Apr-20 11:20N 46°19' W 084°07'9 8.0
2016-Apr-20 10:16N 46°10' W 084°05'7 9.7
2016-Apr-20 09:33N 46°04' W 084°01'9 9.5
2016-Apr-20 08:34N 45°55' W 083°56'1413.5
2016-Apr-20 07:33N 45°51' W 084°15'1413.9
2016-Apr-20 06:33N 45°51' W 084°34'1313.1
2016-Apr-20 05:33N 45°49' W 084°53'1111.1
2016-Apr-20 04:33N 45°47' W 085°09'1312.9
2016-Apr-20 03:33N 45°36' W 085°19'1413.9
2016-Apr-20 02:33N 45°25' W 085°31'1413.8
2016-Apr-20 01:33N 45°14' W 085°43'1413.8
2016-Apr-20 00:33N 45°03' W 085°54'1313.2
2016-Apr-19 23:33N 44°56' W 086°10'1313.1
2016-Apr-19 22:33N 44°44' W 086°20'10 0.2
2016-Apr-17 22:27N 44°53' W 086°26'2513.0
2016-Apr-17 20:33N 45°17' W 086°16'1312.9
2016-Apr-17 19:33N 45°29' W 086°11'1312.6
2016-Apr-17 18:33N 45°41' W 086°05'1313.0
2016-Apr-17 17:33N 45°48' W 085°49'1312.6
2016-Apr-17 16:33N 45°53' W 085°33'1312.6
2016-Apr-17 15:33N 45°53' W 085°15'1312.8
2016-Apr-17 14:33N 45°51' W 084°57'1212.4
2016-Apr-17 13:33N 45°50' W 084°39'1211.9
2016-Apr-17 12:33N 45°52' W 084°23'1313.2
2016-Apr-17 11:33N 45°54' W 084°04'10 7.5
2016-Apr-17 10:15N 46°02' W 083°56'6 8.9
2016-Apr-17 09:33N 46°07' W 084°01'9 8.5
2016-Apr-17 08:29N 46°13' W 084°10'5 5.8
2016-Apr-17 07:33N 46°19' W 084°13'  
Track history (hours):
 
Tides and Currents Weather Stations Pressure Air Temp Water Temp Dewpoint Dewpoint Depression Visibility Wind Speed Wind Dir Waves Ship Positions

Edgar B Speer

Owner: Great Lakes Fleet, Inc, DULUTH, MN. More information available from US FCC via Universal Licensing System and Coast Guard Vessel Documentation Center.

Last reported at 2016-Apr-27 06:33 UTC. Time now 2016-Apr-28 19:47 UTC.
Position N 46°13' W 084°07'.

Length 306 m; draft 8.7 m.

Type: Cargo ship. MMSI: 366971330.

Date/timePositionNaut miles runAvg speedWind from/ knotsBaromVisibWave heightAir tempDewpointWater temp
2016-Apr-27 06:33N 46°13' W 084°07'10 9.5
2016-Apr-27 05:33N 46°05' W 084°01'1111.5
2016-Apr-27 04:33N 45°55' W 083°52'  
2016-Apr-23 16:09N 45°53' W 083°48'32 8.3
2016-Apr-23 12:16N 46°20' W 084°13'12 3.2
2016-Apr-23 08:32N 46°30' W 084°24'5 5.1
2016-Apr-23 07:31N 46°27' W 084°30'9 8.7
2016-Apr-23 06:29N 46°33' W 084°40'3712.6
2016-Apr-23 03:31N 46°56' W 085°23'1313.1
2016-Apr-23 02:33N 47°02' W 085°40'23712.3
2016-Apr-22 07:18N 47°04' W 091°28'912.0
2016-Apr-22 06:33N 47°00' W 091°40'1 0.6
2016-Apr-22 05:33N 47°01' W 091°40'0 0.0
2016-Apr-22 04:30N 47°01' W 091°40'0 0.0
2016-Apr-22 03:23N 47°01' W 091°40'0 0.0
2016-Apr-22 02:33N 47°01' W 091°40'0 0.0
2016-Apr-21 17:33N 47°01' W 091°40'31410.4
2016-Apr-20 11:20N 46°19' W 084°07'9 8.0
2016-Apr-20 10:16N 46°10' W 084°05'7 9.7
2016-Apr-20 09:33N 46°04' W 084°01'9 9.5
2016-Apr-20 08:34N 45°55' W 083°56'1413.5
2016-Apr-20 07:33N 45°51' W 084°15'1413.9
2016-Apr-20 06:33N 45°51' W 084°34'1313.1
2016-Apr-20 05:33N 45°49' W 084°53'1111.1
2016-Apr-20 04:33N 45°47' W 085°09'1312.9
2016-Apr-20 03:33N 45°36' W 085°19'1413.9
2016-Apr-20 02:33N 45°25' W 085°31'1413.8
2016-Apr-20 01:33N 45°14' W 085°43'1413.8
2016-Apr-20 00:33N 45°03' W 085°54'1313.2
2016-Apr-19 23:33N 44°56' W 086°10'1313.1
2016-Apr-19 22:33N 44°44' W 086°20'10 0.2
2016-Apr-17 22:27N 44°53' W 086°26'2513.0
2016-Apr-17 20:33N 45°17' W 086°16'1312.9
2016-Apr-17 19:33N 45°29' W 086°11'1312.6
2016-Apr-17 18:33N 45°41' W 086°05'1313.0
2016-Apr-17 17:33N 45°48' W 085°49'1312.6
2016-Apr-17 16:33N 45°53' W 085°33'1312.6
2016-Apr-17 15:33N 45°53' W 085°15'1312.8
2016-Apr-17 14:33N 45°51' W 084°57'1212.4
2016-Apr-17 13:33N 45°50' W 084°39'1211.9
2016-Apr-17 12:33N 45°52' W 084°23'1313.2
2016-Apr-17 11:33N 45°54' W 084°04'10 7.5
2016-Apr-17 10:15N 46°02' W 083°56'6 8.9
2016-Apr-17 09:33N 46°07' W 084°01'9 8.5
2016-Apr-17 08:29N 46°13' W 084°10'5 5.8
2016-Apr-17 07:33N 46°19' W 084°13'  

Dump ship's entire track history